createdAt,value
2017-10-28T00:02:56.464Z,0
2017-10-28T00:13:11.047Z,0
2017-10-28T00:23:25.258Z,0
2017-10-28T00:33:39.974Z,0
2017-10-28T00:43:53.789Z,0
2017-10-28T00:54:09.172Z,0
2017-10-28T01:04:24.411Z,0
2017-10-28T01:14:39.256Z,0
2017-10-28T01:24:54.789Z,0
2017-10-28T01:35:08.514Z,0
2017-10-28T01:45:23.940Z,0
2017-10-28T01:55:37.998Z,0
2017-10-28T02:05:52.624Z,0
2017-10-28T02:16:06.561Z,0
2017-10-28T02:26:21.606Z,0
2017-10-28T02:36:35.391Z,0
2017-10-28T02:46:49.105Z,0
2017-10-28T02:57:03.759Z,0
2017-10-28T03:07:18.571Z,0
2017-10-28T03:17:33.287Z,0
2017-10-28T03:27:48.111Z,0
2017-10-28T03:38:01.893Z,0
2017-10-28T03:48:17.026Z,0
2017-10-28T03:58:30.944Z,0
2017-10-28T04:08:46.017Z,0
2017-10-28T04:19:00.198Z,0
2017-10-28T04:29:15.427Z,0
2017-10-28T04:39:29.438Z,0
2017-10-28T04:49:44.975Z,0
2017-10-28T05:00:00.122Z,0
2017-10-28T05:10:14.616Z,0
2017-10-28T05:20:29.180Z,0
2017-10-28T05:30:43.225Z,0
2017-10-28T05:40:58.719Z,0
2017-10-28T05:51:13.464Z,0
2017-10-28T06:01:27.690Z,0
2017-10-28T06:11:42.888Z,0
2017-10-28T06:21:56.812Z,5
2017-10-28T06:32:10.788Z,5
2017-10-28T06:42:26.199Z,15
2017-10-28T06:52:40.322Z,30
2017-10-28T07:02:55.517Z,55
2017-10-28T07:13:10.480Z,100
2017-10-28T07:23:25.671Z,45
2017-10-28T07:33:40.451Z,105
2017-10-28T07:43:55.253Z,75
2017-10-28T07:54:09.547Z,115
2017-10-28T08:04:24.219Z,105
2017-10-28T08:14:39.047Z,200
2017-10-28T08:24:53.727Z,160
2017-10-28T08:35:07.625Z,195
2017-10-28T08:45:21.696Z,140
2017-10-28T08:55:36.267Z,280
2017-10-28T09:05:50.202Z,155
2017-10-28T09:16:04.825Z,260
2017-10-28T09:26:20.345Z,225
2017-10-28T09:36:34.649Z,220
2017-10-28T09:46:49.266Z,200
2017-10-28T09:57:03.497Z,225
2017-10-28T10:07:17.537Z,120
2017-10-28T10:17:33.011Z,230
2017-10-28T10:27:47.579Z,250
2017-10-28T10:38:03.115Z,315
2017-10-28T10:48:17.497Z,240
2017-10-28T10:58:31.135Z,365
2017-10-28T11:08:44.878Z,300
2017-10-28T11:18:59.758Z,240
2017-10-28T11:29:13.550Z,310
2017-10-28T11:39:27.509Z,205
2017-10-28T11:49:42.399Z,190
2017-10-28T11:59:56.263Z,175
2017-10-28T12:10:11.849Z,160
2017-10-28T12:20:27.507Z,295
2017-10-28T12:30:41.245Z,265
2017-10-28T12:40:56.885Z,360
2017-10-28T12:51:11.812Z,295
2017-10-28T13:01:27.027Z,310
2017-10-28T13:11:40.876Z,175
2017-10-28T13:21:55.402Z,140
2017-10-28T13:32:10.819Z,170
2017-10-28T13:42:26.268Z,150
2017-10-28T13:52:40.414Z,175
2017-10-28T14:02:55.167Z,110
2017-10-28T14:13:09.997Z,75
2017-10-28T14:23:23.786Z,100
2017-10-28T14:33:38.432Z,70
2017-10-28T14:43:53.904Z,45
2017-10-28T14:54:08.064Z,30
2017-10-28T15:04:23.456Z,25
2017-10-28T15:14:39.183Z,20
2017-10-28T15:24:53.575Z,20
2017-10-28T15:35:08.085Z,15
2017-10-28T15:45:23.277Z,10
2017-10-28T15:55:37.456Z,5
2017-10-28T16:05:52.512Z,0
2017-10-28T16:16:07.190Z,0
2017-10-28T16:26:22.915Z,0
2017-10-28T16:36:38.248Z,0
2017-10-28T16:46:53.516Z,0
2017-10-28T16:57:08.824Z,0
2017-10-28T17:07:23.001Z,0
2017-10-28T17:17:37.183Z,0
2017-10-28T17:27:51.294Z,0
2017-10-28T17:38:06.558Z,0
2017-10-28T17:48:21.839Z,0
2017-10-28T17:58:36.313Z,0
2017-10-28T18:08:51.401Z,0
2017-10-28T18:19:05.143Z,0
2017-10-28T18:29:19.584Z,0
2017-10-28T18:39:33.323Z,0
2017-10-28T18:49:47.694Z,0
2017-10-28T19:00:03.338Z,0
2017-10-28T19:10:17.392Z,0
2017-10-28T19:20:31.150Z,0
2017-10-28T19:30:46.437Z,0
2017-10-28T19:41:00.947Z,0
2017-10-28T19:51:16.327Z,0
2017-10-28T20:01:31.203Z,0
2017-10-28T20:11:46.161Z,0
2017-10-28T20:22:01.133Z,0
2017-10-28T20:32:16.182Z,0
2017-10-28T20:42:30.217Z,0
2017-10-28T20:52:45.810Z,0
2017-10-28T21:02:59.831Z,0
2017-10-28T21:13:15.023Z,0
2017-10-28T21:23:30.143Z,0
2017-10-28T21:33:45.330Z,0
2017-10-28T21:44:00.914Z,0
2017-10-28T21:54:15.525Z,0
2017-10-28T22:04:30.164Z,0
2017-10-28T22:14:45.131Z,0
2017-10-28T22:25:00.169Z,0
2017-10-28T22:35:14.239Z,0
2017-10-28T22:45:29.781Z,0
2017-10-28T22:55:44.528Z,0
2017-10-28T23:05:58.446Z,0
2017-10-28T23:16:13.920Z,0
2017-10-28T23:26:28.541Z,0
2017-10-28T23:36:42.804Z,0
2017-10-28T23:46:57.759Z,0
2017-10-28T23:57:11.560Z,0
